createdAt,value
2023-04-26T00:00:20.906Z,87.60
2023-04-26T00:01:15.086Z,87.46
2023-04-26T00:01:48.283Z,87.55
2023-04-26T00:02:22.265Z,87.57
2023-04-26T00:02:56.047Z,87.35
2023-04-26T00:03:29.484Z,87.42
2023-04-26T00:04:03.856Z,87.56
2023-04-26T00:04:37.761Z,87.38
2023-04-26T00:05:11.426Z,87.68
2023-04-26T00:05:44.866Z,87.51
2023-04-26T00:06:18.085Z,87.56
2023-04-26T00:06:51.248Z,87.55
2023-04-26T00:07:25.428Z,87.40
2023-04-26T00:07:59.060Z,87.62
2023-04-26T00:08:32.347Z,87.30
2023-04-26T00:09:05.744Z,87.59
2023-04-26T00:09:41.900Z,87.50
2023-04-26T00:10:15.082Z,87.19
2023-04-26T00:10:48.275Z,87.24
2023-04-26T00:11:21.586Z,87.22
2023-04-26T00:11:54.808Z,87.35
2023-04-26T00:12:28.134Z,87.42
2023-04-26T00:13:01.377Z,87.30
2023-04-26T00:13:34.571Z,87.33
2023-04-26T00:14:07.828Z,87.39
2023-04-26T00:14:40.987Z,87.47
2023-04-26T00:15:14.152Z,87.37
2023-04-26T00:15:47.413Z,87.51
2023-04-26T00:16:21.244Z,87.51
2023-04-26T00:16:54.620Z,87.49
2023-04-26T00:17:27.794Z,87.45
2023-04-26T00:18:00.923Z,87.42
2023-04-26T00:18:34.361Z,87.49
2023-04-26T00:19:07.577Z,87.53
2023-04-26T00:19:41.242Z,87.63
2023-04-26T00:20:14.791Z,87.45
2023-04-26T00:20:48.031Z,87.33
2023-04-26T00:21:21.577Z,87.62
2023-04-26T00:21:54.785Z,87.61
2023-04-26T00:22:28.167Z,87.61
2023-04-26T00:23:01.377Z,87.55
2023-04-26T00:23:37.006Z,87.66
2023-04-26T00:24:10.185Z,87.43
2023-04-26T00:24:43.546Z,87.45
2023-04-26T00:25:16.650Z,87.44
2023-04-26T00:25:49.868Z,87.32
2023-04-26T00:26:22.989Z,87.52
2023-04-26T00:26:56.252Z,87.31
2023-04-26T00:27:29.318Z,87.60
2023-04-26T00:28:02.804Z,87.51
2023-04-26T00:28:36.024Z,87.48
2023-04-26T00:29:09.332Z,87.48
2023-04-26T00:29:42.549Z,87.36
2023-04-26T00:30:15.742Z,87.48
2023-04-26T00:30:49.228Z,87.55
2023-04-26T00:31:22.453Z,87.33
2023-04-26T00:31:55.682Z,87.56
2023-04-26T00:32:28.884Z,87.62
2023-04-26T00:33:02.095Z,87.53
2023-04-26T00:33:35.351Z,87.65
2023-04-26T00:34:08.516Z,87.60
2023-04-26T00:34:41.723Z,87.59
2023-04-26T00:35:15.004Z,87.49
2023-04-26T00:35:48.179Z,87.64
2023-04-26T00:36:21.319Z,87.45
2023-04-26T00:36:54.524Z,87.39
2023-04-26T00:37:27.743Z,87.41
2023-04-26T00:38:01.201Z,87.65
2023-04-26T00:38:34.244Z,87.51
2023-04-26T00:39:07.516Z,87.39
2023-04-26T00:39:40.818Z,87.41
2023-04-26T00:40:14.181Z,87.59
2023-04-26T00:40:47.451Z,87.63
2023-04-26T00:41:20.649Z,87.60
2023-04-26T00:41:54.076Z,87.58
2023-04-26T00:42:27.559Z,87.80
2023-04-26T00:43:00.801Z,87.62
2023-04-26T00:43:34.038Z,87.67
2023-04-26T00:44:07.610Z,87.45
2023-04-26T00:44:40.984Z,87.77
2023-04-26T00:45:14.247Z,87.44
2023-04-26T00:45:47.416Z,87.47
2023-04-26T00:46:21.411Z,87.64
2023-04-26T00:46:54.889Z,87.53
2023-04-26T00:47:30.052Z,87.49
2023-04-26T00:48:04.037Z,87.52
2023-04-26T00:48:37.820Z,87.49
2023-04-26T00:49:14.840Z,87.55
2023-04-26T00:49:48.007Z,87.55
2023-04-26T00:50:21.582Z,87.50
2023-04-26T00:50:55.098Z,87.64
2023-04-26T00:51:28.604Z,87.51
2023-04-26T00:52:02.078Z,87.58
2023-04-26T00:52:35.838Z,87.65
2023-04-26T00:53:09.597Z,87.64
2023-04-26T00:53:43.284Z,87.60
2023-04-26T00:54:16.639Z,87.50
2023-04-26T00:54:49.956Z,87.49
2023-04-26T00:55:23.706Z,87.61
2023-04-26T00:55:57.877Z,87.57
2023-04-26T00:56:32.352Z,87.66
2023-04-26T00:57:07.353Z,87.55
2023-04-26T00:57:41.106Z,87.47
2023-04-26T00:58:14.416Z,87.53
2023-04-26T00:58:47.556Z,87.63
2023-04-26T00:59:21.530Z,87.56
2023-04-26T00:59:54.769Z,87.50
2023-04-26T01:00:28.029Z,87.47
2023-04-26T01:01:01.353Z,87.54
2023-04-26T01:01:35.744Z,87.59
2023-04-26T01:02:09.520Z,87.46
2023-04-26T01:02:43.229Z,87.54
2023-04-26T01:03:17.512Z,87.70
2023-04-26T01:03:50.968Z,87.38
2023-04-26T01:04:27.683Z,87.53
2023-04-26T01:05:01.113Z,87.59
2023-04-26T01:05:34.311Z,87.32
2023-04-26T01:06:07.440Z,87.65
2023-04-26T01:06:41.704Z,87.52
2023-04-26T01:07:14.860Z,87.49
2023-04-26T01:07:48.304Z,87.69
2023-04-26T01:08:22.528Z,87.74
2023-04-26T01:08:57.494Z,87.44
2023-04-26T01:09:32.050Z,87.50
2023-04-26T01:10:06.292Z,87.61
2023-04-26T01:10:40.321Z,87.50
2023-04-26T01:11:14.239Z,87.37
2023-04-26T01:11:47.512Z,87.49
2023-04-26T01:12:21.026Z,87.67
2023-04-26T01:12:54.641Z,87.57
2023-04-26T01:13:29.092Z,87.42
2023-04-26T01:14:02.273Z,87.42
2023-04-26T01:14:37.053Z,87.50
2023-04-26T01:15:10.442Z,87.44
2023-04-26T01:15:45.779Z,87.27
2023-04-26T01:16:20.200Z,87.35
2023-04-26T01:16:53.401Z,87.35
2023-04-26T01:17:26.722Z,87.62
2023-04-26T01:18:00.120Z,87.47
2023-04-26T01:18:33.315Z,87.48
2023-04-26T01:19:12.662Z,87.59
2023-04-26T01:19:49.216Z,87.47
2023-04-26T01:20:22.468Z,87.49
2023-04-26T01:20:57.221Z,87.35
2023-04-26T01:21:30.285Z,87.47
2023-04-26T01:22:04.439Z,87.50
2023-04-26T01:22:37.602Z,87.30
2023-04-26T01:23:11.898Z,87.45
2023-04-26T01:23:44.954Z,87.58
2023-04-26T01:24:18.157Z,87.47
2023-04-26T01:24:51.867Z,87.29
2023-04-26T01:25:24.983Z,87.46
2023-04-26T01:25:58.205Z,87.67
2023-04-26T01:26:32.365Z,87.55
2023-04-26T01:27:05.546Z,87.69
2023-04-26T01:27:38.909Z,87.45
2023-04-26T01:28:12.162Z,87.63
2023-04-26T01:28:47.025Z,87.48
2023-04-26T01:29:21.865Z,87.46
2023-04-26T01:29:55.072Z,87.57
2023-04-26T01:30:28.274Z,87.42
2023-04-26T01:31:01.502Z,87.54
2023-04-26T01:31:34.730Z,87.51
2023-04-26T01:32:07.966Z,87.43
2023-04-26T01:32:41.070Z,87.48
2023-04-26T01:33:15.978Z,87.50
2023-04-26T01:33:49.055Z,87.65
2023-04-26T01:34:22.059Z,87.64
2023-04-26T01:34:55.295Z,87.66
2023-04-26T01:35:28.501Z,87.49
2023-04-26T01:36:01.954Z,87.48
2023-04-26T01:36:35.253Z,87.50
2023-04-26T01:37:08.323Z,87.58
2023-04-26T01:37:41.506Z,87.66
2023-04-26T01:38:14.931Z,87.63
2023-04-26T01:38:47.980Z,87.70
2023-04-26T01:39:21.443Z,87.50
2023-04-26T01:39:54.546Z,87.50
2023-04-26T01:40:27.650Z,87.60
2023-04-26T01:41:00.835Z,87.50
2023-04-26T01:41:34.015Z,87.56
2023-04-26T01:42:07.341Z,87.78
2023-04-26T01:42:40.497Z,87.49
2023-04-26T01:43:15.674Z,87.56
2023-04-26T01:43:48.794Z,87.69
2023-04-26T01:44:21.892Z,87.55
2023-04-26T01:44:55.068Z,87.54
2023-04-26T01:45:29.411Z,87.48
2023-04-26T01:46:02.919Z,87.50
2023-04-26T01:46:36.212Z,87.48
2023-04-26T01:47:09.346Z,87.42
2023-04-26T01:47:42.519Z,87.37
2023-04-26T01:48:15.745Z,87.53
2023-04-26T01:48:48.798Z,87.60
2023-04-26T01:49:22.060Z,87.33
2023-04-26T01:49:55.223Z,87.53
2023-04-26T01:50:28.537Z,87.56
2023-04-26T01:51:01.756Z,87.43
2023-04-26T01:51:34.938Z,87.34
2023-04-26T01:52:08.169Z,87.43
2023-04-26T01:52:41.320Z,87.33
2023-04-26T01:53:14.454Z,87.46
2023-04-26T01:53:47.617Z,87.46
2023-04-26T01:54:21.616Z,87.54
2023-04-26T01:54:54.693Z,87.53
2023-04-26T01:55:27.915Z,87.45
2023-04-26T01:56:02.943Z,87.48
2023-04-26T01:56:36.234Z,87.24
2023-04-26T01:57:09.667Z,87.42
2023-04-26T01:57:42.848Z,87.57
2023-04-26T01:58:17.063Z,87.21
2023-04-26T01:58:50.556Z,87.33
2023-04-26T01:59:23.900Z,87.37
2023-04-26T01:59:57.076Z,87.54
2023-04-26T02:00:30.246Z,87.54
2023-04-26T02:01:09.992Z,87.56
2023-04-26T02:01:43.835Z,87.59
2023-04-26T02:02:20.434Z,87.39
2023-04-26T02:02:57.492Z,87.49
2023-04-26T02:03:31.225Z,87.42
2023-04-26T02:04:06.721Z,87.58
2023-04-26T02:04:40.019Z,87.38
2023-04-26T02:05:13.284Z,87.55
2023-04-26T02:05:46.997Z,87.35
2023-04-26T02:06:20.549Z,87.49
2023-04-26T02:06:53.815Z,87.39
2023-04-26T02:07:27.027Z,87.42
2023-04-26T02:08:00.243Z,87.48
2023-04-26T02:08:33.730Z,87.59
2023-04-26T02:09:06.869Z,87.42
2023-04-26T02:09:39.993Z,87.36
2023-04-26T02:10:13.502Z,87.31
2023-04-26T02:10:46.695Z,87.52
2023-04-26T02:11:20.057Z,87.46
2023-04-26T02:11:53.343Z,87.48
2023-04-26T02:12:26.527Z,87.51
2023-04-26T02:12:59.629Z,87.32
2023-04-26T02:13:32.825Z,87.49
2023-04-26T02:14:06.016Z,87.50
2023-04-26T02:14:39.141Z,87.35
2023-04-26T02:15:12.331Z,87.49
2023-04-26T02:15:49.004Z,87.50
2023-04-26T02:16:22.660Z,87.31
2023-04-26T02:16:57.275Z,87.52
2023-04-26T02:17:31.082Z,87.27
2023-04-26T02:18:04.285Z,87.44
2023-04-26T02:18:37.470Z,87.46
2023-04-26T02:19:11.195Z,87.31
2023-04-26T02:19:44.267Z,87.33
2023-04-26T02:20:17.418Z,87.48
2023-04-26T02:20:50.908Z,87.24
2023-04-26T02:21:24.125Z,87.47
2023-04-26T02:21:58.340Z,87.46
2023-04-26T02:22:31.882Z,87.44
2023-04-26T02:23:05.034Z,87.45
2023-04-26T02:23:38.224Z,87.47
2023-04-26T02:24:11.605Z,87.46
2023-04-26T02:24:44.765Z,87.50
2023-04-26T02:25:18.052Z,87.47
2023-04-26T02:25:51.410Z,87.41
2023-04-26T02:26:24.579Z,87.52
2023-04-26T02:27:03.502Z,87.31
2023-04-26T02:27:36.719Z,87.27
2023-04-26T02:28:10.075Z,87.31
2023-04-26T02:28:43.193Z,87.24
2023-04-26T02:29:16.447Z,87.53
2023-04-26T02:29:50.075Z,87.50
2023-04-26T02:30:23.277Z,87.38
2023-04-26T02:30:57.052Z,87.48
2023-04-26T02:31:30.235Z,87.63
2023-04-26T02:32:03.381Z,87.53
2023-04-26T02:32:36.842Z,87.48
2023-04-26T02:33:10.214Z,87.34
2023-04-26T02:33:43.348Z,87.50
2023-04-26T02:34:16.807Z,87.51
2023-04-26T02:34:50.004Z,87.52
2023-04-26T02:35:23.740Z,87.46
2023-04-26T02:35:56.875Z,87.47
2023-04-26T02:36:30.294Z,87.45
2023-04-26T02:37:03.421Z,87.53
2023-04-26T02:37:37.587Z,87.69
2023-04-26T02:38:10.692Z,87.43
2023-04-26T02:38:43.761Z,87.52
2023-04-26T02:39:17.260Z,87.25
2023-04-26T02:39:51.766Z,87.25
2023-04-26T02:40:24.827Z,87.36
2023-04-26T02:40:59.050Z,87.41
2023-04-26T02:41:33.079Z,87.33
2023-04-26T02:42:09.767Z,87.49
2023-04-26T02:42:43.013Z,87.51
2023-04-26T02:43:16.225Z,87.44
2023-04-26T02:43:49.334Z,87.18
2023-04-26T02:44:22.456Z,87.21
2023-04-26T02:44:55.823Z,87.48
2023-04-26T02:45:28.965Z,87.36
2023-04-26T02:46:02.179Z,87.40
2023-04-26T02:46:35.605Z,87.61
2023-04-26T02:47:09.380Z,87.39
2023-04-26T02:47:42.580Z,87.44
2023-04-26T02:48:15.705Z,87.53
2023-04-26T02:48:49.006Z,87.30
2023-04-26T02:49:22.334Z,87.44
2023-04-26T02:49:56.338Z,87.55
2023-04-26T02:50:29.454Z,87.36
2023-04-26T02:51:02.582Z,87.54
2023-04-26T02:51:35.749Z,87.44
2023-04-26T02:52:08.978Z,87.49
2023-04-26T02:52:42.093Z,87.42
2023-04-26T02:53:16.227Z,87.69
2023-04-26T02:53:49.386Z,87.33
2023-04-26T02:54:22.510Z,87.48
2023-04-26T02:54:55.652Z,87.40
2023-04-26T02:55:28.738Z,87.24
2023-04-26T02:56:02.221Z,87.51
2023-04-26T02:56:35.560Z,87.28
2023-04-26T02:57:08.667Z,87.38
2023-04-26T02:57:41.793Z,87.35
2023-04-26T02:58:14.990Z,87.34
2023-04-26T02:58:48.112Z,87.60
2023-04-26T02:59:21.635Z,87.36
2023-04-26T02:59:55.897Z,87.31
2023-04-26T03:00:29.215Z,87.53
2023-04-26T03:01:02.596Z,87.56
2023-04-26T03:01:35.859Z,87.20
2023-04-26T03:02:09.220Z,87.57
2023-04-26T03:02:42.691Z,87.32
2023-04-26T03:03:17.052Z,87.47
2023-04-26T03:03:50.822Z,87.45
2023-04-26T03:04:24.168Z,87.11
2023-04-26T03:04:57.473Z,87.50
2023-04-26T03:05:30.761Z,87.39
2023-04-26T03:06:04.446Z,87.50
2023-04-26T03:06:37.636Z,87.49
2023-04-26T03:07:10.710Z,87.33
2023-04-26T03:07:43.773Z,87.45
2023-04-26T03:08:17.213Z,87.59
2023-04-26T03:08:50.836Z,87.30
2023-04-26T03:09:24.178Z,87.29
2023-04-26T03:09:58.203Z,87.30
2023-04-26T03:10:31.535Z,87.35
2023-04-26T03:11:04.660Z,87.28
2023-04-26T03:11:37.797Z,87.26
2023-04-26T03:12:11.091Z,87.43
2023-04-26T03:12:44.414Z,87.34
2023-04-26T03:13:17.551Z,87.52
2023-04-26T03:13:50.758Z,87.17
2023-04-26T03:14:24.037Z,87.39
2023-04-26T03:14:57.397Z,87.29
2023-04-26T03:15:30.549Z,87.46
2023-04-26T03:16:03.717Z,87.23
2023-04-26T03:16:43.725Z,87.30
2023-04-26T03:17:16.872Z,87.49
2023-04-26T03:17:50.001Z,87.32
2023-04-26T03:18:23.167Z,87.24
2023-04-26T03:18:56.364Z,87.21
2023-04-26T03:19:29.458Z,87.30
2023-04-26T03:20:02.894Z,87.28
2023-04-26T03:20:36.190Z,87.20
2023-04-26T03:21:09.457Z,87.37
2023-04-26T03:21:42.575Z,87.23
2023-04-26T03:22:16.483Z,87.23
2023-04-26T03:22:50.111Z,87.41
2023-04-26T03:23:25.611Z,87.25
2023-04-26T03:23:58.772Z,87.37
2023-04-26T03:24:32.068Z,87.41
2023-04-26T03:25:05.869Z,87.16
2023-04-26T03:25:39.189Z,87.36
2023-04-26T03:26:12.444Z,87.18
2023-04-26T03:26:45.651Z,87.30
2023-04-26T03:27:18.851Z,87.26
2023-04-26T03:27:52.075Z,87.37
2023-04-26T03:28:25.266Z,87.29
2023-04-26T03:28:58.610Z,87.63
2023-04-26T03:29:31.777Z,87.09
2023-04-26T03:30:06.092Z,87.26
2023-04-26T03:30:39.296Z,87.28
2023-04-26T03:31:12.500Z,87.20
2023-04-26T03:31:45.826Z,87.30
2023-04-26T03:32:19.116Z,87.16
2023-04-26T03:32:53.005Z,87.18
2023-04-26T03:33:26.092Z,87.20
2023-04-26T03:33:59.202Z,87.39
2023-04-26T03:34:32.366Z,87.23
2023-04-26T03:35:05.661Z,87.13
2023-04-26T03:35:38.906Z,87.17
2023-04-26T03:36:12.989Z,87.16
2023-04-26T03:36:46.188Z,87.32
2023-04-26T03:37:19.396Z,87.39
2023-04-26T03:37:53.611Z,87.29
2023-04-26T03:38:27.427Z,87.36
2023-04-26T03:39:00.576Z,87.27
2023-04-26T03:39:33.759Z,87.33
2023-04-26T03:40:08.881Z,87.28
2023-04-26T03:40:42.115Z,87.35
2023-04-26T03:41:15.249Z,87.33
2023-04-26T03:41:48.641Z,87.37
2023-04-26T03:42:21.838Z,87.46
2023-04-26T03:42:55.020Z,87.28
2023-04-26T03:43:28.176Z,87.51
2023-04-26T03:44:01.416Z,87.27
2023-04-26T03:44:34.714Z,87.25
2023-04-26T03:45:08.291Z,87.45
2023-04-26T03:45:41.544Z,87.30
2023-04-26T03:46:14.842Z,87.25
2023-04-26T03:46:48.072Z,87.18
2023-04-26T03:47:21.344Z,87.40
2023-04-26T03:47:54.624Z,87.33
2023-04-26T03:48:27.806Z,87.20
2023-04-26T03:49:01.086Z,87.60
2023-04-26T03:49:34.287Z,87.32
2023-04-26T03:50:08.540Z,87.48
2023-04-26T03:50:41.795Z,87.19
2023-04-26T03:51:15.113Z,87.36
2023-04-26T03:51:48.277Z,87.34
2023-04-26T03:52:21.441Z,87.43
2023-04-26T03:52:54.569Z,87.49
2023-04-26T03:53:27.771Z,87.29
2023-04-26T03:54:00.978Z,87.61
2023-04-26T03:54:34.918Z,87.34
2023-04-26T03:55:10.326Z,87.28
2023-04-26T03:55:43.439Z,87.49
2023-04-26T03:56:17.293Z,87.27
2023-04-26T03:56:50.442Z,87.48
2023-04-26T03:57:23.666Z,87.44
2023-04-26T03:57:56.751Z,87.31
2023-04-26T03:58:29.859Z,87.55
2023-04-26T03:59:03.252Z,87.43
2023-04-26T03:59:36.603Z,87.47
2023-04-26T04:00:14.467Z,87.37
2023-04-26T04:00:47.623Z,87.35
2023-04-26T04:01:21.108Z,87.44
2023-04-26T04:01:54.356Z,87.46
2023-04-26T04:02:27.564Z,87.38
2023-04-26T04:03:01.050Z,87.41
2023-04-26T04:03:34.343Z,87.58
2023-04-26T04:04:08.125Z,87.28
2023-04-26T04:04:42.467Z,87.38
2023-04-26T04:05:16.163Z,87.32
2023-04-26T04:05:49.683Z,87.31
2023-04-26T04:06:22.922Z,87.20
2023-04-26T04:06:56.225Z,87.28
2023-04-26T04:07:29.328Z,87.47
2023-04-26T04:08:02.628Z,87.20
2023-04-26T04:08:35.717Z,87.42
2023-04-26T04:09:09.423Z,87.39
2023-04-26T04:09:42.560Z,87.29
2023-04-26T04:10:16.690Z,87.31
2023-04-26T04:10:50.063Z,87.46
2023-04-26T04:11:23.475Z,87.51
2023-04-26T04:11:56.726Z,87.35
2023-04-26T04:12:29.938Z,87.15
2023-04-26T04:13:03.125Z,87.27
2023-04-26T04:13:36.341Z,87.40
2023-04-26T04:14:09.552Z,87.50
2023-04-26T04:14:42.785Z,87.31
2023-04-26T04:15:16.911Z,87.27
2023-04-26T04:15:50.024Z,87.17
2023-04-26T04:16:23.223Z,87.19
2023-04-26T04:16:56.980Z,87.13
2023-04-26T04:17:30.146Z,87.30
2023-04-26T04:18:04.141Z,87.36
2023-04-26T04:18:37.313Z,87.17
2023-04-26T04:19:10.409Z,87.23
2023-04-26T04:19:43.465Z,87.27
2023-04-26T04:20:16.913Z,87.24
2023-04-26T04:20:50.122Z,87.27
2023-04-26T04:21:23.204Z,87.15
2023-04-26T04:21:56.580Z,87.37
2023-04-26T04:22:29.903Z,87.42
2023-04-26T04:23:04.651Z,87.20
2023-04-26T04:23:37.855Z,87.28
2023-04-26T04:24:11.758Z,87.17
2023-04-26T04:24:45.243Z,87.12
2023-04-26T04:25:21.366Z,87.22
2023-04-26T04:25:54.698Z,87.28
2023-04-26T04:26:30.649Z,87.44
2023-04-26T04:27:04.275Z,87.20
2023-04-26T04:27:38.369Z,87.18
2023-04-26T04:28:12.294Z,87.28
2023-04-26T04:28:47.514Z,87.07
2023-04-26T04:29:20.871Z,87.14
2023-04-26T04:29:55.388Z,87.13
2023-04-26T04:30:29.755Z,87.15
2023-04-26T04:31:03.126Z,87.33
2023-04-26T04:31:37.131Z,87.17
2023-04-26T04:32:11.736Z,87.25
2023-04-26T04:32:45.402Z,87.11
2023-04-26T04:33:19.387Z,87.33
2023-04-26T04:33:52.535Z,87.10
2023-04-26T04:34:26.583Z,87.10
2023-04-26T04:34:59.858Z,87.05
2023-04-26T04:35:34.415Z,87.22
2023-04-26T04:36:08.489Z,87.41
2023-04-26T04:36:41.695Z,86.95
2023-04-26T04:37:15.642Z,87.06
2023-04-26T04:37:50.333Z,86.96
2023-04-26T04:38:23.613Z,87.16
2023-04-26T04:38:56.872Z,87.00
2023-04-26T04:39:30.123Z,87.31
2023-04-26T04:40:03.363Z,87.01
2023-04-26T04:40:36.602Z,86.88
2023-04-26T04:41:10.518Z,86.97
2023-04-26T04:41:49.709Z,86.96
2023-04-26T04:42:23.803Z,87.05
2023-04-26T04:42:57.081Z,87.05
2023-04-26T04:43:30.325Z,87.10
2023-04-26T04:44:04.343Z,86.99
2023-04-26T04:44:37.803Z,87.04
2023-04-26T04:45:11.145Z,87.11
2023-04-26T04:45:44.426Z,87.05
2023-04-26T04:46:17.560Z,87.03
2023-04-26T04:46:51.009Z,87.06
2023-04-26T04:47:24.563Z,87.04
2023-04-26T04:47:57.875Z,87.08
2023-04-26T04:48:31.054Z,87.05
2023-04-26T04:49:04.215Z,86.81
2023-04-26T04:49:38.273Z,86.94
2023-04-26T04:50:11.765Z,86.88
2023-04-26T04:50:45.008Z,86.81
2023-04-26T04:51:18.242Z,86.90
2023-04-26T04:51:51.589Z,86.80
2023-04-26T04:52:24.719Z,86.76
2023-04-26T04:52:57.999Z,87.07
2023-04-26T04:53:31.239Z,86.74
2023-04-26T04:54:14.821Z,86.90
2023-04-26T04:54:48.900Z,86.86
2023-04-26T04:55:22.153Z,86.86
2023-04-26T04:55:55.308Z,86.73
2023-04-26T04:56:28.487Z,86.72
2023-04-26T04:57:02.090Z,86.68
2023-04-26T04:57:36.131Z,86.65
2023-04-26T04:58:09.312Z,86.57
2023-04-26T04:58:42.524Z,86.70
2023-04-26T04:59:15.721Z,86.70
2023-04-26T04:59:48.875Z,86.68
2023-04-26T05:00:22.157Z,86.68
2023-04-26T05:00:56.133Z,86.75
2023-04-26T05:01:29.398Z,86.67
2023-04-26T05:02:02.655Z,86.54
2023-04-26T05:02:37.157Z,86.76
2023-04-26T05:03:11.103Z,86.72
2023-04-26T05:03:44.438Z,86.77
2023-04-26T05:04:18.038Z,86.72
2023-04-26T05:04:51.551Z,86.62
2023-04-26T05:05:24.881Z,86.81
2023-04-26T05:05:58.063Z,86.56
2023-04-26T05:06:34.034Z,86.66
2023-04-26T05:07:07.327Z,86.73
2023-04-26T05:07:40.560Z,86.67
2023-04-26T05:08:13.950Z,86.87
2023-04-26T05:08:47.441Z,86.39
2023-04-26T05:09:20.595Z,86.63
2023-04-26T05:09:53.847Z,86.44
2023-04-26T05:10:27.041Z,86.62
2023-04-26T05:11:00.185Z,86.79
2023-04-26T05:11:33.438Z,86.82
2023-04-26T05:12:06.973Z,86.64
2023-04-26T05:12:40.162Z,86.58
2023-04-26T05:13:13.411Z,86.69
2023-04-26T05:13:47.036Z,86.84
2023-04-26T05:14:20.180Z,86.70
2023-04-26T05:14:53.623Z,86.59
2023-04-26T05:15:26.830Z,86.55
2023-04-26T05:16:00.021Z,86.77
2023-04-26T05:16:33.444Z,86.61
2023-04-26T05:17:06.675Z,86.52
2023-04-26T05:17:42.327Z,86.31
2023-04-26T05:18:15.634Z,86.44
2023-04-26T05:18:48.790Z,86.35
2023-04-26T05:19:22.043Z,86.49
2023-04-26T05:19:55.592Z,86.53
2023-04-26T05:20:29.897Z,86.60
2023-04-26T05:21:03.008Z,86.55
2023-04-26T05:21:36.570Z,86.58
2023-04-26T05:22:09.962Z,86.63
2023-04-26T05:22:43.455Z,86.39
2023-04-26T05:23:16.939Z,86.37
2023-04-26T05:23:50.200Z,86.40
2023-04-26T05:24:23.593Z,86.36
2023-04-26T05:24:56.738Z,86.50
2023-04-26T05:25:29.876Z,86.30
2023-04-26T05:26:06.872Z,86.49
2023-04-26T05:26:40.681Z,86.44
2023-04-26T05:27:13.917Z,86.46
2023-04-26T05:27:47.315Z,86.51
2023-04-26T05:28:20.996Z,86.46
2023-04-26T05:28:54.216Z,86.48
2023-04-26T05:29:33.963Z,86.46
2023-04-26T05:30:08.687Z,86.32
2023-04-26T05:30:41.954Z,86.31
2023-04-26T05:31:15.213Z,86.14
2023-04-26T05:31:48.356Z,86.35
2023-04-26T05:32:21.672Z,86.34
2023-04-26T05:32:57.224Z,86.21
2023-04-26T05:33:31.195Z,86.39
2023-04-26T05:34:04.509Z,86.32
2023-04-26T05:34:38.938Z,86.18
2023-04-26T05:35:12.370Z,86.16
2023-04-26T05:35:46.207Z,85.87
2023-04-26T05:36:19.931Z,86.03
2023-04-26T05:36:53.386Z,86.30
2023-04-26T05:37:26.812Z,86.20
2023-04-26T05:38:00.280Z,85.82
2023-04-26T05:38:33.499Z,86.13
2023-04-26T05:39:07.557Z,86.04
2023-04-26T05:39:40.743Z,86.06
2023-04-26T05:40:14.145Z,86.03
2023-04-26T05:40:48.549Z,85.98
2023-04-26T05:41:21.672Z,85.99
2023-04-26T05:41:54.776Z,86.02
2023-04-26T05:42:27.859Z,86.01
2023-04-26T05:43:00.944Z,85.80
2023-04-26T05:43:34.668Z,85.89
2023-04-26T05:44:07.742Z,86.05
2023-04-26T05:44:41.047Z,85.99
2023-04-26T05:45:14.234Z,85.75
2023-04-26T05:45:54.066Z,85.91
2023-04-26T05:46:27.339Z,85.92
2023-04-26T05:47:00.534Z,85.82
2023-04-26T05:47:33.760Z,85.67
2023-04-26T05:48:07.097Z,85.52
2023-04-26T05:48:40.284Z,85.62
2023-04-26T05:49:13.464Z,85.70
2023-04-26T05:49:46.726Z,85.56
2023-04-26T05:50:19.886Z,85.74
2023-04-26T05:50:53.325Z,85.47
2023-04-26T05:51:26.460Z,85.68
2023-04-26T05:52:01.099Z,85.76
2023-04-26T05:52:34.677Z,86.03
2023-04-26T05:53:07.827Z,85.49
2023-04-26T05:53:42.018Z,85.78
2023-04-26T05:54:15.287Z,85.60
2023-04-26T05:54:48.452Z,85.57
2023-04-26T05:55:21.793Z,85.67
2023-04-26T05:55:55.038Z,85.57
2023-04-26T05:56:29.399Z,85.78
2023-04-26T05:57:02.637Z,85.55
2023-04-26T05:57:35.983Z,85.68
2023-04-26T05:58:09.667Z,85.74
2023-04-26T05:58:42.963Z,85.77
2023-04-26T05:59:16.162Z,85.65
2023-04-26T05:59:49.387Z,85.51
2023-04-26T06:00:23.813Z,85.61
2023-04-26T06:00:56.964Z,85.52
2023-04-26T06:01:30.238Z,85.51
2023-04-26T06:02:05.105Z,85.34
2023-04-26T06:02:38.559Z,85.60
2023-04-26T06:03:13.057Z,85.62
2023-04-26T06:03:47.091Z,85.52
2023-04-26T06:04:20.615Z,85.58
2023-04-26T06:04:54.505Z,85.64
2023-04-26T06:05:28.438Z,85.48
2023-04-26T06:06:02.034Z,85.47
2023-04-26T06:06:35.354Z,85.46
2023-04-26T06:07:08.552Z,85.44
2023-04-26T06:07:41.787Z,85.51
2023-04-26T06:08:15.006Z,85.36
2023-04-26T06:08:48.338Z,85.49
2023-04-26T06:09:21.619Z,85.41
2023-04-26T06:09:54.725Z,85.56
2023-04-26T06:10:27.951Z,85.51
2023-04-26T06:11:01.115Z,85.32
2023-04-26T06:11:34.352Z,85.22
2023-04-26T06:12:07.952Z,85.44
2023-04-26T06:12:41.644Z,85.30
2023-04-26T06:13:14.814Z,85.48
2023-04-26T06:13:48.072Z,85.36
2023-04-26T06:14:30.068Z,85.37
2023-04-26T06:15:04.066Z,85.39
2023-04-26T06:15:37.985Z,85.28
2023-04-26T06:16:11.487Z,85.23
2023-04-26T06:16:44.699Z,85.33
2023-04-26T06:17:17.912Z,85.16
2023-04-26T06:17:51.192Z,85.40
2023-04-26T06:18:24.409Z,85.11
2023-04-26T06:18:57.550Z,85.11
2023-04-26T06:19:30.753Z,85.24
2023-04-26T06:20:05.306Z,85.20
2023-04-26T06:20:38.507Z,85.05
2023-04-26T06:21:11.665Z,85.19
2023-04-26T06:21:44.751Z,85.22
2023-04-26T06:22:17.883Z,85.23
2023-04-26T06:22:51.290Z,85.31
2023-04-26T06:23:24.492Z,85.08
2023-04-26T06:23:57.697Z,85.11
2023-04-26T06:24:30.908Z,84.97
2023-04-26T06:25:07.535Z,85.16
2023-04-26T06:25:44.941Z,84.93
2023-04-26T06:26:18.118Z,84.95
2023-04-26T06:26:51.646Z,84.94
2023-04-26T06:27:25.000Z,84.78
2023-04-26T06:27:58.995Z,84.85
2023-04-26T06:28:32.556Z,84.76
2023-04-26T06:29:06.199Z,84.76
2023-04-26T06:29:39.474Z,84.83
2023-04-26T06:30:12.913Z,84.75
2023-04-26T06:30:46.483Z,84.66
2023-04-26T06:31:21.965Z,84.64
2023-04-26T06:31:55.251Z,84.59
2023-04-26T06:32:28.624Z,84.57
2023-04-26T06:33:02.754Z,84.49
2023-04-26T06:33:36.036Z,84.46
2023-04-26T06:34:09.866Z,84.45
2023-04-26T06:34:45.728Z,84.43
2023-04-26T06:35:18.914Z,84.47
2023-04-26T06:35:52.625Z,84.42
2023-04-26T06:36:26.568Z,84.44
2023-04-26T06:36:59.888Z,84.45
2023-04-26T06:37:33.075Z,84.49
2023-04-26T06:38:06.243Z,84.38
2023-04-26T06:38:39.390Z,84.38
2023-04-26T06:39:12.732Z,84.19
2023-04-26T06:39:46.031Z,84.13
2023-04-26T06:40:19.144Z,84.19
2023-04-26T06:40:52.433Z,84.03
2023-04-26T06:41:25.847Z,84.03
2023-04-26T06:41:58.928Z,84.03
2023-04-26T06:42:32.159Z,84.00
2023-04-26T06:43:05.344Z,83.91
2023-04-26T06:43:38.736Z,83.98
2023-04-26T06:44:11.954Z,83.89
2023-04-26T06:44:45.239Z,83.87
2023-04-26T06:45:19.168Z,83.80
2023-04-26T06:45:52.292Z,83.77
2023-04-26T06:46:25.784Z,83.87
2023-04-26T06:46:59.137Z,83.84
2023-04-26T06:47:32.799Z,83.83
2023-04-26T06:48:06.932Z,83.74
2023-04-26T06:48:40.233Z,83.78
2023-04-26T06:49:13.625Z,83.61
2023-04-26T06:49:46.852Z,83.61
2023-04-26T06:50:20.013Z,83.49
2023-04-26T06:50:53.439Z,83.49
2023-04-26T06:51:27.283Z,83.45
2023-04-26T06:52:00.404Z,83.51
2023-04-26T06:52:33.753Z,83.38
2023-04-26T06:53:07.256Z,83.35
2023-04-26T06:53:41.805Z,83.31
2023-04-26T06:54:15.039Z,83.25
2023-04-26T06:54:56.550Z,83.24
2023-04-26T06:55:31.826Z,83.27
2023-04-26T06:56:06.241Z,83.21
2023-04-26T06:56:39.309Z,83.12
2023-04-26T06:57:12.484Z,83.08
2023-04-26T06:57:45.941Z,83.11
2023-04-26T06:58:19.249Z,83.22
2023-04-26T06:59:00.797Z,83.15
2023-04-26T06:59:33.859Z,83.13
2023-04-26T07:00:07.581Z,83.00
2023-04-26T07:00:40.830Z,83.09
2023-04-26T07:01:13.986Z,83.18
2023-04-26T07:01:47.147Z,83.10
2023-04-26T07:02:20.282Z,82.95
2023-04-26T07:02:53.544Z,83.09
2023-04-26T07:03:27.250Z,82.99
2023-04-26T07:04:04.757Z,83.12
2023-04-26T07:04:38.406Z,82.91
2023-04-26T07:05:11.751Z,82.81
2023-04-26T07:05:44.949Z,82.92
2023-04-26T07:06:18.105Z,82.82
2023-04-26T07:06:51.463Z,82.79
2023-04-26T07:07:24.561Z,82.91
2023-04-26T07:07:57.681Z,82.68
2023-04-26T07:08:31.610Z,82.76
2023-04-26T07:09:04.865Z,82.69
2023-04-26T07:09:38.025Z,82.84
2023-04-26T07:10:11.372Z,82.63
2023-04-26T07:10:44.603Z,82.61
2023-04-26T07:11:17.821Z,82.56
2023-04-26T07:11:51.189Z,82.49
2023-04-26T07:12:24.425Z,82.42
2023-04-26T07:12:57.716Z,82.30
2023-04-26T07:13:31.812Z,82.45